< Typhoon 201524 2015 Season Typhoon 201526 >
Typhoon 201525 (CHAMPI)
General InformationTrack Information on Google MapsDetailed Wind InformationForecast History on Google MapsAccess Analytics MapList of All Images || NewsDisaster Info.WeblogTrackbackTyphoon FrontTwiphoonTyphoon Now!Typhoon ImaginationDisaster Info. XMLResourceGoogle EarthGE AnimationAtom FeedGeoJSON
Detalied Best Track (Time Zone = UTC)
Year Month Day Hour Lat. Long. Pressure (hPa) Wind (kt) Class Image Chart
2015 10 13 00 12.5 161.4 1004 0 2 Image Chart
2015 10 13 06 13.0 160.2 1002 0 2 Image Chart
2015 10 13 12 13.2 159.0 1002 0 2 Image Chart
2015 10 13 18 13.6 158.1 1000 0 2 Image Chart
2015 10 14 00 14.0 156.7 1000 35 3 Image Chart
2015 10 14 06 14.5 155.5 1000 35 3 Image Chart
2015 10 14 12 14.7 154.6 998 40 3 Image Chart
2015 10 14 18 15.0 153.7 996 45 3 Image Chart
2015 10 15 00 15.4 151.9 996 45 3 Image Chart
2015 10 15 06 15.1 150.3 996 45 3 Image Chart
2015 10 15 12 15.4 149.2 996 45 3 Image Chart
2015 10 15 18 15.5 147.6 990 55 4 Image Chart
2015 10 16 00 15.4 145.9 985 55 4 Image Chart
2015 10 16 06 15.6 144.8 980 60 4 Image Chart
2015 10 16 12 16.2 144.0 975 65 5 Image Chart
2015 10 16 18 16.5 143.3 975 65 5 Image Chart
2015 10 17 00 16.9 142.4 975 65 5 Image Chart
2015 10 17 06 17.7 141.5 965 75 5 Image Chart
2015 10 17 12 18.4 140.7 955 80 5 Image Chart
2015 10 17 18 18.8 140.3 955 80 5 Image Chart
2015 10 18 00 19.2 140.1 950 85 5 Image Chart
2015 10 18 06 19.5 140.1 940 90 5 Image Chart
2015 10 18 12 19.8 140.2 930 95 5 Image Chart
2015 10 18 18 20.2 140.3 930 95 5 Image Chart
2015 10 19 00 20.5 140.4 930 95 5 Image Chart
2015 10 19 06 20.8 140.3 935 90 5 Image Chart
2015 10 19 12 21.0 140.2 945 85 5 Image Chart
2015 10 19 18 21.1 140.1 945 85 5 Image Chart
2015 10 20 00 21.4 140.2 950 80 5 Image Chart
2015 10 20 06 21.8 140.2 950 80 5 Image Chart
2015 10 20 12 22.1 140.0 950 80 5 Image Chart
2015 10 20 18 22.3 140.0 950 80 5 Image Chart
2015 10 21 00 22.6 140.0 950 80 5 Image Chart
2015 10 21 06 22.9 140.1 950 80 5 Image Chart
2015 10 21 12 23.2 140.3 950 80 5 Image Chart
2015 10 21 18 23.5 140.7 950 80 5 Image Chart
2015 10 22 00 23.7 141.2 945 85 5 Image Chart
2015 10 22 06 24.0 141.8 945 85 5 Image Chart
2015 10 22 12 24.2 142.7 945 85 5 Image Chart
2015 10 22 18 24.7 143.9 945 85 5 Image Chart
2015 10 23 00 25.0 145.1 950 80 5 Image Chart
2015 10 23 06 25.4 146.6 955 75 5 Image Chart
2015 10 23 12 25.8 147.9 960 75 5 Image Chart
2015 10 23 18 26.4 149.2 970 65 5 Image Chart
2015 10 24 00 27.0 150.3 980 60 4 Image Chart
2015 10 24 06 27.5 151.6 980 60 4 Image Chart
2015 10 24 12 28.3 153.2 980 60 4 Image Chart
2015 10 24 18 29.5 155.2 980 60 4 Image Chart
2015 10 25 00 31.3 158.4 985 55 4 Image Chart
2015 10 25 06 33.7 163.2 985 55 4 Image Chart
2015 10 25 12 37.0 167.6 980 0 6 Image Chart
2015 10 25 18 40.8 171.5 974 0 6 Image Chart
2015 10 26 00 43.4 174.8 976 0 6 Image Chart
2015 10 26 06 45.3 177.1 980 0 6 Image Chart
2015 10 26 12 47.2 178.8 984 0 6 Image Chart
2015 10 26 18 48.1 180.4 984 0 6 Image Chart
Japan Meteorological Agency Best Track Data | Correction Date : 2015-11-24
< Typhoon 201524 2015 Season Typhoon 201526 >

Help